Time;durP1;ratioP1;P1;durP2;ratioP2;P2;SDS_P1;SDS_P2;PMS_P1;PMS_P2;Temp;Humidity;BMP_temperature;BMP_pressure;BME280_temperature;BME280_humidity;BME280_pressure;Samples;Min_cycle;Max_cycle;Signal;HPM_P1;HPM_P2
2022/01/07 00:02:09;;;;;;;115.50;103.10;;;4.50;95.80;;;;;;4998609;28;20050;-77
2022/01/07 00:04:37;;;;;;;116.22;103.82;;;4.50;95.80;;;;;;4998398;28;20125;-77
2022/01/07 00:07:05;;;;;;;117.15;104.05;;;4.50;95.70;;;;;;4981835;28;20043;-77
2022/01/07 00:09:32;;;;;;;114.88;101.55;;;4.50;95.70;;;;;;4998360;28;20062;-77
2022/01/07 00:11:59;;;;;;;116.60;103.18;;;4.50;95.70;;;;;;4982075;28;20054;-77
2022/01/07 00:14:28;;;;;;;114.80;102.60;;;4.60;95.60;;;;;;5016137;28;20480;-78
2022/01/07 00:16:55;;;;;;;119.03;104.68;;;4.60;95.50;;;;;;4998004;28;20046;-78
2022/01/07 00:19:22;;;;;;;113.70;101.18;;;4.50;95.60;;;;;;4998194;28;20428;-77
2022/01/07 00:21:49;;;;;;;;;;;4.60;95.60;;;;;;4998627;28;20057;-77
2022/01/07 00:24:16;;;;;;;116.50;102.00;;;4.50;95.60;;;;;;4998364;28;19930;-77
2022/01/07 00:26:43;;;;;;;114.28;101.70;;;4.50;95.60;;;;;;4997973;28;20051;-78
2022/01/07 00:32:40;;;;;;;117.53;104.70;;;4.50;95.60;;;;;;4981866;28;20113;-77
2022/01/07 00:35:08;;;;;;;114.53;101.95;;;4.60;95.50;;;;;;4998047;28;20051;-77
2022/01/07 00:37:36;;;;;;;113.15;100.82;;;4.50;95.50;;;;;;4997288;28;20061;-77
2022/01/07 00:40:04;;;;;;;114.53;101.95;;;4.60;95.40;;;;;;4998081;28;20966;-77
2022/01/07 00:42:31;;;;;;;112.00;99.80;;;4.60;95.50;;;;;;4997796;28;20061;-77
2022/01/07 00:44:58;;;;;;;113.00;100.75;;;4.60;95.50;;;;;;4997738;28;20053;-77
2022/01/07 00:47:25;;;;;;;114.13;101.72;;;4.60;95.40;;;;;;4997531;28;20054;-77
2022/01/07 00:49:54;;;;;;;115.97;103.25;;;4.60;95.50;;;;;;4997726;28;20077;-77
2022/01/07 00:52:21;;;;;;;116.20;102.85;;;4.60;95.50;;;;;;5015444;28;20500;-77
2022/01/07 00:54:48;;;;;;;113.95;101.13;;;4.50;95.70;;;;;;4997562;28;20057;-77
2022/01/07 00:57:15;;;;;;;113.45;101.43;;;4.50;95.80;;;;;;4997140;28;20526;-77
2022/01/07 00:59:42;;;;;;;115.97;102.70;;;4.50;95.80;;;;;;4997464;28;20062;-77
2022/01/07 01:02:09;;;;;;;113.47;100.78;;;4.50;95.80;;;;;;4997580;28;20058;-78
2022/01/07 01:04:36;;;;;;;;;;;4.50;95.90;;;;;;4997760;28;20069;-78
2022/01/07 01:07:05;;;;;;;113.72;101.50;;;4.50;96.00;;;;;;4997442;28;20379;-78
2022/01/07 01:09:32;;;;;;;114.40;102.40;;;4.40;96.10;;;;;;4997413;28;20138;-78
2022/01/07 01:12:00;;;;;;;;;;;4.40;96.30;;;;;;4997861;28;20055;-78
2022/01/07 01:14:28;;;;;;;113.10;100.80;;;4.40;96.30;;;;;;4981361;28;20025;-78
2022/01/07 01:16:58;;;;;;;115.28;101.75;;;4.30;96.30;;;;;;4997055;28;20054;-78
2022/01/07 01:19:25;;;;;;;115.22;102.85;;;4.30;96.50;;;;;;4997071;28;20058;-78
2022/01/07 01:21:52;;;;;;;115.80;102.78;;;4.20;96.70;;;;;;4997152;28;20057;-78
2022/01/07 01:24:21;;;;;;;114.25;101.78;;;4.20;96.80;;;;;;4980892;28;20496;-77
2022/01/07 01:26:48;;;;;;;115.05;102.60;;;4.30;96.90;;;;;;5013507;28;20061;-77
2022/01/07 01:29:15;;;;;;;115.25;102.70;;;4.10;96.90;;;;;;4997024;28;20186;-77
2022/01/07 01:31:42;;;;;;;115.70;102.22;;;4.10;97.20;;;;;;4997218;28;20078;-78
2022/01/07 01:34:09;;;;;;;113.55;101.53;;;4.10;97.20;;;;;;4997090;28;20550;-78
2022/01/07 01:36:36;;;;;;;114.85;102.32;;;4.00;97.30;;;;;;4997150;28;20047;-78
2022/01/07 01:39:03;;;;;;;;;;;4.00;97.40;;;;;;4996870;28;20164;-78
2022/01/07 01:41:32;;;;;;;114.88;101.70;;;4.00;97.50;;;;;;5014989;28;20034;-77
2022/01/07 01:44:00;;;;;;;112.97;100.75;;;4.00;97.40;;;;;;4997175;28;20062;-77
2022/01/07 01:46:27;;;;;;;114.05;101.78;;;3.90;97.60;;;;;;5014751;28;20064;-77
2022/01/07 01:48:54;;;;;;;114.60;102.13;;;3.90;97.70;;;;;;4996172;28;20062;-78
2022/01/07 01:51:21;;;;;;;;;;;3.90;97.80;;;;;;4997304;28;20516;-78
2022/01/07 01:53:47;;;;;;;;;;;3.80;97.70;;;;;;4997515;28;19930;-77
2022/01/07 01:56:14;;;;;;;;;;;3.80;97.80;;;;;;4997650;28;20407;-78
2022/01/07 01:58:43;;;;;;;113.40;101.03;;;3.80;98.00;;;;;;5029686;28;20336;-78
2022/01/07 02:01:10;;;;;;;116.93;103.18;;;3.80;98.00;;;;;;4996891;28;20054;-77
2022/01/07 02:03:37;;;;;;;;;;;3.70;98.00;;;;;;4980920;28;20145;-78
2022/01/07 02:06:03;;;;;;;;;;;3.70;98.10;;;;;;5014872;28;19926;-78
2022/01/07 02:08:30;;;;;;;;;;;3.70;98.20;;;;;;4997231;28;20314;-78
2022/01/07 02:10:59;;;;;;;120.63;102.97;;;3.70;98.20;;;;;;4980552;28;20027;-77
2022/01/07 02:13:26;;;;;;;115.85;103.07;;;3.70;98.20;;;;;;4996444;28;20051;-77
2022/01/07 02:15:54;;;;;;;;;;;3.70;98.30;;;;;;4996735;28;20057;-78
2022/01/07 02:18:21;;;;;;;115.53;102.97;;;3.70;98.30;;;;;;4996077;28;19925;-77
2022/01/07 02:20:49;;;;;;;;;;;3.60;98.30;;;;;;4996928;28;20053;-77
2022/01/07 02:23:57;;;;;;;113.70;101.03;;;3.60;98.40;;;;;;4998854;28;19953;-77
2022/01/07 02:26:24;;;;;;;115.10;102.55;;;3.60;98.30;;;;;;4996453;28;20145;-77
2022/01/07 02:28:51;;;;;;;115.65;103.35;;;3.60;98.50;;;;;;4995873;28;20056;-77
2022/01/07 02:31:18;;;;;;;116.20;102.80;;;3.60;98.50;;;;;;4995768;28;20053;-77
2022/01/07 02:33:46;;;;;;;116.70;104.22;;;3.60;98.60;;;;;;4979635;28;20593;-78
2022/01/07 02:36:14;;;;;;;;;;;3.60;98.60;;;;;;4995995;28;20050;-77
2022/01/07 02:38:41;;;;;;;112.90;101.07;;;3.60;98.70;;;;;;4995654;28;19926;-78
2022/01/07 02:41:08;;;;;;;113.65;101.47;;;3.60;98.60;;;;;;4996317;28;20144;-77
2022/01/07 02:43:35;;;;;;;;;;;3.60;98.70;;;;;;5013110;28;20058;-79
2022/01/07 02:46:02;;;;;;;;;;;3.70;98.60;;;;;;5029863;28;19926;-78
2022/01/07 02:48:29;;;;;;;;;;;3.60;98.50;;;;;;4996942;28;19932;-78
2022/01/07 02:50:56;;;;;;;115.07;102.53;;;3.60;98.50;;;;;;4980145;28;20045;-78
2022/01/07 02:53:25;;;;;;;115.88;103.68;;;3.60;98.60;;;;;;4995873;28;20686;-77
2022/01/07 02:55:52;;;;;;;114.57;102.50;;;3.60;98.70;;;;;;4979515;28;20078;-78
2022/01/07 02:58:18;;;;;;;115.05;103.00;;;3.50;98.60;;;;;;4995624;28;20054;-78
2022/01/07 03:00:45;;;;;;;115.85;103.53;;;3.50;98.70;;;;;;4995850;28;20042;-78
2022/01/07 03:03:13;;;;;;;116.75;104.25;;;3.60;98.70;;;;;;4995843;28;20125;-77
2022/01/07 03:05:41;;;;;;;116.03;103.75;;;3.60;98.70;;;;;;4995863;28;20054;-77
2022/01/07 03:08:09;;;;;;;117.90;105.60;;;3.60;98.80;;;;;;4996027;28;20057;-78
2022/01/07 03:10:38;;;;;;;116.53;104.40;;;3.60;98.80;;;;;;4995739;28;20069;-78
2022/01/07 03:13:06;;;;;;;117.30;104.90;;;3.60;98.80;;;;;;5013603;28;20070;-77
2022/01/07 03:15:37;;;;;;;116.18;104.03;;;3.60;98.80;;;;;;4996090;28;20055;-78
2022/01/07 03:18:05;;;;;;;115.78;103.88;;;3.60;98.80;;;;;;4995630;28;20050;-78
2022/01/07 03:20:37;;;;;;;118.55;106.13;;;3.60;98.80;;;;;;4995499;28;20049;-78
2022/01/07 03:23:06;;;;;;;118.18;105.68;;;3.60;98.80;;;;;;4995882;28;20822;-78
2022/01/07 03:25:34;;;;;;;118.72;106.13;;;3.60;98.80;;;;;;4995664;28;20062;-78
2022/01/07 03:28:02;;;;;;;;;;;3.70;98.70;;;;;;4997122;28;20065;-77
2022/01/07 03:30:29;;;;;;;116.00;103.60;;;3.70;98.60;;;;;;4983063;28;19926;-78
2022/01/07 03:32:57;;;;;;;117.18;104.82;;;3.70;98.70;;;;;;4982612;28;20050;-78
2022/01/07 03:35:24;;;;;;;117.63;104.97;;;3.70;98.70;;;;;;4998713;28;20417;-78
2022/01/07 03:37:51;;;;;;;118.60;106.28;;;3.60;98.80;;;;;;4998353;28;20050;-77
2022/01/07 03:40:20;;;;;;;117.50;105.13;;;3.70;98.90;;;;;;4998841;28;20141;-79
2022/01/07 03:42:49;;;;;;;118.25;105.82;;;3.70;98.80;;;;;;4998579;28;20050;-78
2022/01/07 03:45:18;;;;;;;119.03;106.10;;;3.60;98.90;;;;;;4998663;28;20504;-77
2022/01/07 03:47:46;;;;;;;119.25;106.72;;;3.70;99.00;;;;;;4998568;28;20046;-78
2022/01/07 03:50:15;;;;;;;116.80;104.60;;;3.70;99.00;;;;;;4982412;28;20105;-78
2022/01/07 03:52:43;;;;;;;117.40;105.20;;;3.70;98.90;;;;;;4998684;28;20050;-78
2022/01/07 03:55:13;;;;;;;116.28;103.78;;;3.70;98.90;;;;;;4998752;28;20055;-78
2022/01/07 03:57:41;;;;;;;117.68;105.47;;;3.70;98.90;;;;;;4998483;28;20178;-78
2022/01/07 04:00:10;;;;;;;117.13;104.90;;;3.80;98.90;;;;;;4998288;28;20060;-77
2022/01/07 04:02:40;;;;;;;116.05;103.75;;;3.80;98.80;;;;;;4998388;28;20046;-78
2022/01/07 04:05:09;;;;;;;116.55;104.53;;;3.70;98.90;;;;;;4998442;28;20050;-78
2022/01/07 04:07:36;;;;;;;117.10;104.63;;;3.70;99.00;;;;;;4998176;28;20060;-78
2022/01/07 04:10:04;;;;;;;;;;;3.80;98.90;;;;;;5015561;28;20106;-78
2022/01/07 04:12:31;;;;;;;116.45;103.85;;;3.70;98.90;;;;;;4998349;28;19936;-78
2022/01/07 04:15:08;;;;;;;116.35;104.05;;;3.80;98.80;;;;;;4998575;28;20113;-78
2022/01/07 04:17:36;;;;;;;118.97;106.75;;;3.80;98.80;;;;;;5000448;28;20121;-78
2022/01/07 04:20:06;;;;;;;115.05;102.95;;;3.80;98.80;;;;;;4998197;28;20523;-79
2022/01/07 04:22:34;;;;;;;114.47;102.55;;;3.80;98.80;;;;;;4998419;28;20039;-78
2022/01/07 04:25:01;;;;;;;114.80;102.82;;;3.80;98.70;;;;;;4998494;28;20093;-78
2022/01/07 04:27:28;;;;;;;;;;;3.70;98.80;;;;;;4982291;28;20054;-78
2022/01/07 04:29:55;;;;;;;116.10;103.82;;;3.70;98.90;;;;;;4998289;28;19932;-78
2022/01/07 04:32:22;;;;;;;114.82;102.80;;;3.70;98.90;;;;;;4998115;28;20146;-78
2022/01/07 04:34:49;;;;;;;116.93;104.88;;;3.80;98.90;;;;;;4997989;28;20177;-78
2022/01/07 04:37:18;;;;;;;;;;;3.80;98.80;;;;;;4998505;28;20050;-78
2022/01/07 04:39:45;;;;;;;116.20;103.80;;;3.80;98.80;;;;;;4996943;28;19925;-78
2022/01/07 04:42:12;;;;;;;;;;;3.90;98.80;;;;;;4998340;28;20039;-78
2022/01/07 04:44:40;;;;;;;115.38;103.28;;;3.80;98.80;;;;;;4998273;28;20315;-78
2022/01/07 04:47:08;;;;;;;117.78;105.47;;;3.90;98.80;;;;;;4997582;28;20062;-79
2022/01/07 04:49:35;;;;;;;116.03;104.00;;;3.90;98.70;;;;;;4997743;28;20129;-78
2022/01/07 04:52:02;;;;;;;117.75;105.68;;;3.90;98.70;;;;;;4997599;28;20050;-78
2022/01/07 04:54:30;;;;;;;;;;;3.90;98.80;;;;;;4998409;28;20058;-78
2022/01/07 04:56:58;;;;;;;114.43;102.55;;;3.90;98.70;;;;;;4997657;28;19961;-78
2022/01/07 04:59:27;;;;;;;116.05;104.00;;;3.90;98.60;;;;;;4997678;28;20077;-78
2022/01/07 05:01:55;;;;;;;113.47;101.78;;;3.90;98.80;;;;;;4997497;28;20058;-78
2022/01/07 05:04:22;;;;;;;114.80;103.00;;;3.90;98.70;;;;;;4981257;28;20579;-79
2022/01/07 05:06:49;;;;;;;;;;;3.80;98.80;;;;;;4998074;28;20082;-78
2022/01/07 05:09:17;;;;;;;111.20;99.75;;;3.90;98.80;;;;;;4997637;28;20016;-78
2022/01/07 05:11:47;;;;;;;114.20;102.40;;;3.80;98.80;;;;;;4997277;28;20057;-78
2022/01/07 05:14:14;;;;;;;114.38;102.13;;;3.80;98.80;;;;;;4997253;28;20134;-78
2022/01/07 05:16:41;;;;;;;113.97;102.15;;;3.80;98.80;;;;;;4997076;28;20058;-78
2022/01/07 05:19:09;;;;;;;113.78;102.15;;;3.80;98.90;;;;;;4997257;28;20057;-78
2022/01/07 05:21:37;;;;;;;115.13;103.20;;;3.80;98.80;;;;;;4997259;28;20050;-78
2022/01/07 05:24:05;;;;;;;115.68;103.82;;;3.90;98.70;;;;;;5014901;28;20046;-78
2022/01/07 05:26:32;;;;;;;113.43;101.57;;;3.90;98.70;;;;;;4997256;28;20135;-78
2022/01/07 05:29:00;;;;;;;113.50;101.72;;;3.90;98.70;;;;;;5013298;28;20137;-78
2022/01/07 05:31:27;;;;;;;116.10;104.10;;;3.80;98.80;;;;;;4980778;28;20054;-78
2022/01/07 05:33:56;;;;;;;114.22;102.43;;;3.80;98.80;;;;;;5015048;28;20060;-79
2022/01/07 05:36:23;;;;;;;114.75;102.95;;;3.80;98.70;;;;;;5015020;28;20058;-78
2022/01/07 05:38:50;;;;;;;;;;;3.80;98.80;;;;;;4996940;28;20058;-78
2022/01/07 05:41:17;;;;;;;113.68;101.95;;;3.80;98.80;;;;;;4980825;28;19930;-78
2022/01/07 05:43:44;;;;;;;115.25;103.53;;;3.80;98.90;;;;;;4996723;28;20054;-78
2022/01/07 05:46:14;;;;;;;113.57;101.80;;;3.80;98.80;;;;;;4996843;28;20488;-78
2022/01/07 05:48:42;;;;;;;114.22;102.43;;;3.80;98.90;;;;;;4980518;28;20542;-78
2022/01/07 05:51:10;;;;;;;112.60;101.13;;;3.90;98.80;;;;;;4996853;28;20049;-78
2022/01/07 05:53:37;;;;;;;113.57;102.07;;;3.80;98.80;;;;;;4996787;28;20556;-78
2022/01/07 05:56:05;;;;;;;114.03;102.57;;;3.80;98.90;;;;;;4996658;28;20097;-78
2022/01/07 05:58:32;;;;;;;113.05;101.53;;;3.90;98.90;;;;;;4980255;28;20137;-78
2022/01/07 06:00:59;;;;;;;113.78;102.07;;;3.90;98.90;;;;;;4996363;28;20113;-79
2022/01/07 06:03:27;;;;;;;;;;;3.90;98.90;;;;;;5014474;28;20058;-82
2022/01/07 06:05:54;;;;;;;112.22;100.57;;;3.90;98.90;;;;;;4996934;28;19930;-79
2022/01/07 06:08:22;;;;;;;112.70;101.10;;;3.90;98.90;;;;;;4996814;28;20508;-79
2022/01/07 06:10:49;;;;;;;112.97;101.40;;;3.90;98.90;;;;;;4996575;28;20401;-79
2022/01/07 06:13:16;;;;;;;113.00;101.50;;;3.90;99.00;;;;;;5014391;28;20058;-79
2022/01/07 06:15:43;;;;;;;113.30;101.70;;;3.90;99.10;;;;;;5014079;28;20054;-78
2022/01/07 06:18:10;;;;;;;113.70;101.97;;;3.90;99.00;;;;;;4980037;28;20113;-79
2022/01/07 06:20:38;;;;;;;114.18;102.68;;;3.90;99.10;;;;;;4996425;28;20060;-79
2022/01/07 06:23:05;;;;;;;113.35;101.95;;;4.00;99.00;;;;;;4996665;28;20128;-79
2022/01/07 06:25:32;;;;;;;113.10;101.70;;;4.00;99.00;;;;;;4996491;28;20423;-79
2022/01/07 06:27:59;;;;;;;114.72;102.82;;;4.00;99.00;;;;;;4979902;28;20042;-79
2022/01/07 06:30:26;;;;;;;113.25;101.65;;;4.00;99.00;;;;;;4996135;28;20055;-79
2022/01/07 06:32:53;;;;;;;113.88;102.35;;;4.00;99.00;;;;;;4996488;28;20062;-79
2022/01/07 06:35:21;;;;;;;115.32;103.78;;;4.00;99.00;;;;;;4996459;28;20081;-79
2022/01/07 06:37:49;;;;;;;115.25;103.40;;;4.10;99.00;;;;;;4996005;28;20047;-79
2022/01/07 06:40:16;;;;;;;116.45;104.75;;;4.00;99.00;;;;;;4995602;28;20043;-79
2022/01/07 06:42:44;;;;;;;114.95;103.25;;;4.10;99.00;;;;;;4996301;28;20787;-79
2022/01/07 06:45:11;;;;;;;114.90;103.25;;;4.10;98.90;;;;;;4996065;28;20078;-79
2022/01/07 06:47:38;;;;;;;116.00;104.20;;;4.10;99.00;;;;;;4995656;28;20554;-79
2022/01/07 06:50:07;;;;;;;113.95;102.47;;;4.10;99.10;;;;;;4995889;28;20054;-79
2022/01/07 06:52:34;;;;;;;113.60;102.10;;;4.10;99.10;;;;;;4995998;28;20175;-79
2022/01/07 06:55:02;;;;;;;;;;;4.10;99.10;;;;;;4996549;28;20137;-79
2022/01/07 06:57:29;;;;;;;112.68;101.38;;;4.10;99.40;;;;;;4979848;28;19922;-79
2022/01/07 06:59:56;;;;;;;115.93;104.25;;;4.10;99.10;;;;;;4995705;28;20065;-79
2022/01/07 07:02:23;;;;;;;113.90;102.50;;;4.10;99.10;;;;;;4995965;28;20057;-78
2022/01/07 07:04:50;;;;;;;115.32;103.70;;;4.10;99.20;;;;;;4999440;28;20129;-79
2022/01/07 07:07:17;;;;;;;115.57;104.03;;;4.10;99.10;;;;;;4999133;28;20149;-79
2022/01/07 07:09:44;;;;;;;114.93;103.38;;;4.10;99.20;;;;;;4999077;28;20046;-79
2022/01/07 07:12:13;;;;;;;;;;;4.10;99.20;;;;;;4999849;28;20121;-79
2022/01/07 07:14:40;;;;;;;112.40;100.90;;;4.10;99.30;;;;;;4983183;28;19925;-79
2022/01/07 07:17:07;;;;;;;115.00;103.43;;;4.10;99.30;;;;;;5015736;28;20055;-79
2022/01/07 07:19:34;;;;;;;114.85;103.15;;;4.00;99.40;;;;;;4998926;28;20282;-79
2022/01/07 07:22:01;;;;;;;115.55;103.70;;;4.10;99.50;;;;;;5016703;28;20046;-79
2022/01/07 07:24:28;;;;;;;;;;;4.10;99.50;;;;;;4999568;28;20571;-79
2022/01/07 07:26:56;;;;;;;115.65;103.93;;;4.10;99.50;;;;;;4982756;28;19926;-79
2022/01/07 07:29:24;;;;;;;116.85;104.85;;;4.10;99.50;;;;;;4998863;28;20141;-79
2022/01/07 07:31:55;;;;;;;114.65;103.20;;;4.10;99.60;;;;;;4998607;28;20141;-79
2022/01/07 07:34:44;;;;;;;118.95;106.90;;;4.10;99.50;;;;;;4998463;28;20129;-79
2022/01/07 07:37:13;;;;;;;119.18;107.13;;;4.10;99.60;;;;;;5010226;28;20141;-81
2022/01/07 07:39:40;;;;;;;119.55;107.55;;;4.10;99.60;;;;;;5011446;28;20108;-82
2022/01/07 07:42:08;;;;;;;117.70;105.75;;;4.20;99.60;;;;;;5002747;28;20078;-82
2022/01/07 07:44:39;;;;;;;121.13;108.63;;;4.20;99.60;;;;;;4962183;28;20666;-83
2022/01/07 07:47:07;;;;;;;119.30;107.10;;;4.20;99.70;;;;;;5016785;28;20058;-83
2022/01/07 07:49:34;;;;;;;121.95;109.65;;;4.20;99.70;;;;;;5003376;28;20085;-82
2022/01/07 07:52:01;;;;;;;119.60;107.40;;;4.20;99.70;;;;;;5002132;28;20137;-84
2022/01/07 07:54:28;;;;;;;;;;;4.20;99.70;;;;;;5004066;28;20048;-83
2022/01/07 07:56:58;;;;;;;;;;;4.20;99.70;;;;;;4998560;28;19925;-83
2022/01/07 07:59:25;;;;;;;119.47;106.97;;;4.20;99.70;;;;;;5014604;28;19933;-82
2022/01/07 08:01:54;;;;;;;122.00;109.63;;;4.20;99.80;;;;;;4983742;28;20050;-83
2022/01/07 08:04:22;;;;;;;121.95;109.55;;;4.30;99.90;;;;;;5030095;28;20061;-82
2022/01/07 08:06:50;;;;;;;;;;;4.30;99.90;;;;;;4984633;28;20141;-81
2022/01/07 08:09:17;;;;;;;121.53;108.53;;;4.30;99.90;;;;;;4984215;28;19929;-81
2022/01/07 08:11:52;;;;;;;;;;;4.40;99.90;;;;;;4982048;28;20547;-81
2022/01/07 08:17:07;;;;;;;122.37;109.50;;;4.50;99.80;;;;;;5015875;28;20065;-82
2022/01/07 08:19:35;;;;;;;123.45;110.78;;;4.50;99.90;;;;;;5016300;28;20129;-82
2022/01/07 08:22:03;;;;;;;124.10;111.22;;;4.50;99.90;;;;;;5000787;28;20569;-81
2022/01/07 08:24:30;;;;;;;122.63;109.97;;;4.50;99.90;;;;;;5001252;28;20050;-81
2022/01/07 08:26:57;;;;;;;;;;;4.50;99.90;;;;;;4998231;28;20052;-83
2022/01/07 08:29:30;;;;;;;120.63;108.15;;;4.50;99.90;;;;;;5011602;28;19930;-82
2022/01/07 08:34:58;;;;;;;123.07;110.25;;;4.60;99.90;;;;;;4935131;29;20521;-82
2022/01/07 08:37:27;;;;;;;126.32;113.45;;;4.60;99.90;;;;;;4942056;28;20115;-81
2022/01/07 08:39:54;;;;;;;126.57;113.57;;;4.60;99.90;;;;;;4984079;28;20522;-78
2022/01/07 08:42:23;;;;;;;127.88;115.05;;;4.60;99.90;;;;;;5017069;28;20049;-79
2022/01/07 08:44:53;;;;;;;126.22;112.82;;;4.70;99.90;;;;;;5016905;28;20081;-80
2022/01/07 08:47:21;;;;;;;124.38;111.38;;;4.70;99.90;;;;;;5000516;28;20054;-79
2022/01/07 08:49:48;;;;;;;131.15;117.55;;;4.70;99.90;;;;;;5016642;28;20797;-79
2022/01/07 08:52:17;;;;;;;128.55;115.32;;;4.80;99.90;;;;;;5017107;28;20518;-79
2022/01/07 08:54:44;;;;;;;124.60;111.70;;;4.80;99.90;;;;;;5016603;28;20492;-79
2022/01/07 08:57:11;;;;;;;128.25;115.47;;;4.90;99.90;;;;;;5000060;28;20050;-80
2022/01/07 08:59:38;;;;;;;;;;;4.90;99.90;;;;;;4997032;28;20050;-81
2022/01/07 09:02:05;;;;;;;;;;;4.90;99.90;;;;;;5015774;28;19932;-81
2022/01/07 09:04:32;;;;;;;125.40;112.00;;;4.90;99.90;;;;;;5013471;28;19964;-83
2022/01/07 09:06:59;;;;;;;132.02;118.93;;;5.00;99.90;;;;;;5015342;28;20086;-81
2022/01/07 09:09:28;;;;;;;128.50;115.00;;;5.00;99.90;;;;;;5002149;28;20539;-78
2022/01/07 09:11:55;;;;;;;127.43;114.55;;;5.00;99.90;;;;;;4996532;28;20057;-82
2022/01/07 09:14:22;;;;;;;125.30;112.50;;;5.10;99.90;;;;;;4997423;28;20062;-81
2022/01/07 09:16:49;;;;;;;128.55;114.93;;;5.10;99.90;;;;;;4976907;28;20138;-82
2022/01/07 09:19:16;;;;;;;;;;;5.10;99.90;;;;;;4961480;28;20161;-82
2022/01/07 09:21:43;;;;;;;;;;;5.10;99.90;;;;;;4993232;28;19926;-80
2022/01/07 09:24:10;;;;;;;126.88;113.45;;;5.20;99.90;;;;;;5010819;28;20410;-81
2022/01/07 09:26:38;;;;;;;;;;;5.20;99.90;;;;;;4977919;28;20090;-80
2022/01/07 09:29:05;;;;;;;126.10;112.88;;;5.20;99.90;;;;;;4977725;28;19930;-80
2022/01/07 09:31:33;;;;;;;129.43;116.15;;;5.20;99.80;;;;;;4993848;28;20065;-79
2022/01/07 09:34:01;;;;;;;131.13;117.55;;;5.20;99.90;;;;;;4977537;28;20082;-84
2022/01/07 09:36:28;;;;;;;130.70;117.15;;;5.30;99.90;;;;;;5011727;28;20552;-83
2022/01/07 09:38:55;;;;;;;131.80;118.25;;;5.30;99.90;;;;;;4996372;28;20516;-82
2022/01/07 09:41:22;;;;;;;133.20;118.95;;;5.40;99.90;;;;;;4996795;28;20516;-80
2022/01/07 09:43:50;;;;;;;;;;;5.40;99.90;;;;;;4997491;28;20054;-82
2022/01/07 09:46:19;;;;;;;129.13;115.75;;;5.40;99.80;;;;;;4981022;28;19926;-86
2022/01/07 09:48:47;;;;;;;130.85;116.95;;;5.40;99.90;;;;;;4980484;28;20056;-81
2022/01/07 09:51:15;;;;;;;131.38;117.82;;;5.40;99.80;;;;;;4996700;28;20058;-80
2022/01/07 09:53:43;;;;;;;132.55;118.75;;;5.40;99.90;;;;;;4996907;28;20058;-80
2022/01/07 09:56:10;;;;;;;130.75;117.45;;;5.50;99.80;;;;;;4996804;28;20057;-83
2022/01/07 09:58:38;;;;;;;131.20;117.60;;;5.40;99.80;;;;;;4996362;28;20062;-80
2022/01/07 10:01:10;;;;;;;131.18;117.95;;;5.50;99.90;;;;;;5000757;28;20567;-80
2022/01/07 10:03:41;;;;;;;129.93;116.43;;;5.50;99.80;;;;;;5016321;28;20057;-78
2022/01/07 10:06:19;;;;;;;126.90;113.55;;;5.50;99.80;;;;;;5016741;28;20131;-79
2022/01/07 10:08:58;;;;;;;122.75;110.15;;;5.50;99.90;;;;;;5015974;28;20061;-79
2022/01/07 10:11:26;;;;;;;121.35;109.15;;;5.50;99.70;;;;;;5016177;28;20085;-79
2022/01/07 10:14:17;;;;;;;122.57;110.30;;;5.50;99.60;;;;;;5016212;28;20050;-79
2022/01/07 10:16:51;;;;;;;119.93;107.88;;;5.50;99.70;;;;;;5016377;28;20411;-80
2022/01/07 10:19:32;;;;;;;118.68;106.88;;;5.40;99.60;;;;;;5015889;28;20049;-80
2022/01/07 10:21:59;;;;;;;116.78;105.20;;;5.40;99.70;;;;;;5016015;28;20050;-79
2022/01/07 10:24:27;;;;;;;117.10;105.43;;;5.40;99.70;;;;;;5015921;28;20054;-80
2022/01/07 10:30:51;;;;;;;117.88;106.18;;;5.40;99.60;;;;;;5015949;28;20058;-80
2022/01/07 10:33:21;;;;;;;117.68;105.90;;;5.40;99.60;;;;;;5033888;28;20180;-80
2022/01/07 10:35:51;;;;;;;119.57;107.72;;;5.30;99.60;;;;;;5015835;28;20050;-80
2022/01/07 10:38:20;;;;;;;118.43;106.50;;;5.30;99.60;;;;;;5017043;28;20559;-80
2022/01/07 10:40:49;;;;;;;118.97;107.07;;;5.40;99.70;;;;;;5019041;28;20058;-80
2022/01/07 10:43:19;;;;;;;120.60;108.22;;;5.40;99.60;;;;;;5037526;28;20060;-79
2022/01/07 10:45:49;;;;;;;121.38;109.05;;;5.40;99.60;;;;;;5019606;28;20093;-80
2022/01/07 10:48:20;;;;;;;118.80;107.05;;;5.40;99.50;;;;;;5019412;28;20065;-80
2022/01/07 10:50:49;;;;;;;117.07;105.30;;;5.40;99.50;;;;;;5037378;28;20137;-81
2022/01/07 10:53:22;;;;;;;116.55;104.93;;;5.40;99.40;;;;;;5019315;28;20049;-80
2022/01/07 10:56:20;;;;;;;115.40;103.97;;;5.40;99.30;;;;;;5019503;28;20071;-81
2022/01/07 10:59:03;;;;;;;114.13;102.65;;;5.50;99.20;;;;;;5019162;28;20081;-80
2022/01/07 11:01:46;;;;;;;114.03;102.60;;;5.40;99.20;;;;;;5018937;28;20538;-80
2022/01/07 11:04:17;;;;;;;113.47;102.20;;;5.40;99.20;;;;;;5016492;28;20054;-79
2022/01/07 11:06:45;;;;;;;114.90;103.22;;;5.40;99.20;;;;;;5019287;28;21046;-80
2022/01/07 11:09:14;;;;;;;116.10;104.40;;;5.50;99.20;;;;;;5018793;28;20133;-79
2022/01/07 11:11:47;;;;;;;117.93;106.03;;;5.50;99.20;;;;;;5019037;28;20042;-84
2022/01/07 11:14:19;;;;;;;119.53;107.78;;;5.50;99.30;;;;;;5018876;28;20144;-79
2022/01/07 11:16:46;;;;;;;120.63;108.43;;;5.50;99.40;;;;;;5016386;28;20054;-80
2022/01/07 11:19:20;;;;;;;121.40;109.20;;;5.60;99.60;;;;;;4998414;28;20140;-81
2022/01/07 11:21:51;;;;;;;121.38;109.18;;;5.60;99.70;;;;;;4998293;28;20133;-80
2022/01/07 11:24:39;;;;;;;124.55;111.90;;;5.60;99.60;;;;;;4997935;28;20078;-80
2022/01/07 11:27:09;;;;;;;125.38;112.75;;;5.70;99.60;;;;;;4997792;28;20491;-84
2022/01/07 11:29:37;;;;;;;124.90;112.18;;;5.80;99.60;;;;;;4984243;28;20089;-81
2022/01/07 11:32:33;;;;;;;124.22;111.40;;;5.80;99.60;;;;;;5017497;28;20052;-81
2022/01/07 11:35:45;;;;;;;124.38;111.68;;;5.80;99.60;;;;;;5011968;28;20602;-81
2022/01/07 11:38:35;;;;;;;124.25;111.55;;;5.80;99.50;;;;;;4978034;28;20051;-81
2022/01/07 11:41:04;;;;;;;124.32;111.90;;;5.80;99.50;;;;;;4996968;28;20046;-81
2022/01/07 11:43:35;;;;;;;124.22;111.53;;;5.80;99.50;;;;;;4983064;28;20050;-86
2022/01/07 11:46:32;;;;;;;123.60;111.07;;;5.80;99.50;;;;;;4998364;28;20050;-85
2022/01/07 11:49:03;;;;;;;122.10;109.90;;;5.80;99.50;;;;;;4973263;28;20061;-82
2022/01/07 11:51:43;;;;;;;122.85;110.25;;;5.80;99.50;;;;;;4995572;28;20059;-82
2022/01/07 11:54:20;;;;;;;120.85;108.88;;;5.80;99.50;;;;;;5011729;28;20540;-83
2022/01/07 11:56:47;;;;;;;120.47;108.28;;;5.80;99.40;;;;;;4995474;28;20073;-84
2022/01/07 11:59:26;;;;;;;118.22;106.38;;;5.80;99.30;;;;;;4986904;28;20093;-81
2022/01/07 12:02:04;;;;;;;114.72;103.20;;;5.90;98.90;;;;;;5010916;28;20150;-81
2022/01/07 12:04:33;;;;;;;113.38;102.03;;;5.90;98.30;;;;;;4995276;28;20061;-81
2022/01/07 12:07:02;;;;;;;113.38;102.28;;;5.90;97.90;;;;;;4996066;28;20551;-81
2022/01/07 12:09:41;;;;;;;113.65;102.07;;;5.80;98.00;;;;;;4998445;28;20054;-81
2022/01/07 12:12:11;;;;;;;111.97;100.90;;;5.80;98.10;;;;;;4997971;28;20177;-82
2022/01/07 12:14:42;;;;;;;112.00;100.97;;;5.80;98.20;;;;;;5011246;28;20104;-80
2022/01/07 12:17:13;;;;;;;113.40;102.20;;;5.80;97.70;;;;;;4981752;28;20133;-82
2022/01/07 12:20:17;;;;;;;112.15;101.05;;;5.90;97.50;;;;;;5001274;28;20050;-81
2022/01/07 12:22:55;;;;;;;110.55;99.30;;;5.90;97.20;;;;;;5017943;28;20173;-82
2022/01/07 12:25:24;;;;;;;110.50;99.18;;;5.80;97.30;;;;;;5017818;28;20054;-81
2022/01/07 12:28:04;;;;;;;111.05;99.97;;;5.80;97.20;;;;;;5017451;28;20141;-81
2022/01/07 12:30:32;;;;;;;109.97;98.97;;;5.80;97.00;;;;;;5001323;28;20112;-82
2022/01/07 12:33:10;;;;;;;110.95;99.60;;;5.70;97.00;;;;;;5018072;28;20144;-82
2022/01/07 12:35:39;;;;;;;112.18;100.60;;;5.70;97.10;;;;;;5017825;28;20058;-82
2022/01/07 12:38:17;;;;;;;110.13;98.75;;;5.60;97.10;;;;;;5016713;28;20050;-82
2022/01/07 12:40:54;;;;;;;110.88;99.63;;;5.60;97.10;;;;;;5017572;28;20077;-81
2022/01/07 12:43:22;;;;;;;109.00;97.93;;;5.60;97.30;;;;;;5017493;28;20594;-81
2022/01/07 12:45:59;;;;;;;109.28;98.38;;;5.60;97.50;;;;;;5017322;28;20049;-80
2022/01/07 12:48:40;;;;;;;110.32;99.30;;;5.60;97.50;;;;;;5017302;28;20053;-80
2022/01/07 12:51:08;;;;;;;111.45;100.18;;;5.70;97.40;;;;;;5010886;28;20128;-80
2022/01/07 12:53:35;;;;;;;110.00;98.90;;;5.70;97.30;;;;;;5017560;28;20526;-80
2022/01/07 12:56:24;;;;;;;111.43;99.97;;;5.70;97.30;;;;;;5016783;28;20401;-79
2022/01/07 12:58:52;;;;;;;113.18;101.65;;;5.60;97.30;;;;;;5016833;28;20125;-81